createdAt,value
2019-03-12T00:02:22.232Z,3.55
2019-03-12T00:04:50.086Z,3.45
2019-03-12T00:07:17.976Z,3.29
2019-03-12T00:09:46.023Z,3.17
2019-03-12T00:12:13.903Z,3.08
2019-03-12T00:14:41.657Z,2.89
2019-03-12T00:17:09.526Z,3.02
2019-03-12T00:19:37.491Z,3.04
2019-03-12T00:22:05.274Z,3.22
2019-03-12T00:24:34.848Z,3.34
2019-03-12T00:27:03.996Z,3.35
2019-03-12T00:29:32.740Z,3.39
2019-03-12T00:32:00.631Z,3.54
2019-03-12T00:34:28.690Z,3.54
2019-03-12T00:36:56.751Z,3.72
2019-03-12T00:39:24.748Z,3.69
2019-03-12T00:41:52.525Z,3.78
2019-03-12T00:44:20.772Z,3.78
2019-03-12T00:46:48.637Z,3.77
2019-03-12T00:49:16.814Z,3.74
2019-03-12T00:51:45.638Z,3.60
2019-03-12T00:54:13.588Z,3.48
2019-03-12T00:56:41.708Z,3.40
2019-03-12T00:59:09.736Z,3.37
2019-03-12T01:01:37.788Z,3.25
2019-03-12T01:04:05.892Z,3.12
2019-03-12T01:06:34.222Z,2.98
2019-03-12T01:09:03.105Z,2.79
2019-03-12T01:11:32.501Z,2.74
2019-03-12T01:14:00.269Z,2.54
2019-03-12T01:16:27.947Z,2.53
2019-03-12T01:18:55.534Z,2.51
2019-03-12T01:21:23.102Z,2.42
2019-03-12T01:23:50.772Z,2.37
2019-03-12T01:26:18.366Z,2.25
2019-03-12T01:28:46.410Z,2.31
2019-03-12T01:31:14.428Z,2.28
2019-03-12T01:33:42.655Z,1.98
2019-03-12T01:36:10.560Z,1.74
2019-03-12T01:38:39.008Z,1.42
2019-03-12T01:41:07.089Z,1.23
2019-03-12T01:43:35.282Z,1.58
2019-03-12T01:46:03.246Z,1.63
2019-03-12T01:48:31.284Z,1.73
2019-03-12T01:50:59.451Z,1.78
2019-03-12T01:53:27.572Z,1.95
2019-03-12T01:55:55.763Z,1.94
2019-03-12T01:58:24.141Z,1.98
2019-03-12T02:00:52.523Z,1.77
2019-03-12T02:03:20.459Z,1.83
2019-03-12T02:05:48.509Z,2.02
2019-03-12T02:08:16.592Z,1.98
2019-03-12T02:10:44.577Z,1.97
2019-03-12T02:13:12.735Z,1.89
2019-03-12T02:15:41.031Z,1.80
2019-03-12T02:18:09.260Z,1.74
2019-03-12T02:20:37.313Z,1.79
2019-03-12T02:23:05.187Z,1.70
2019-03-12T02:34:31.090Z,1.18
2019-03-12T02:36:58.747Z,1.23
2019-03-12T02:39:26.416Z,1.34
2019-03-12T02:41:53.941Z,1.22
2019-03-12T02:44:21.978Z,1.04
2019-03-12T02:46:49.998Z,0.86
2019-03-12T02:49:20.527Z,0.73
2019-03-12T02:51:48.320Z,0.94
2019-03-12T02:54:16.199Z,1.03
2019-03-12T02:56:44.251Z,1.10
2019-03-12T02:59:12.414Z,1.20
2019-03-12T03:01:40.463Z,1.19
2019-03-12T03:04:08.354Z,1.10
2019-03-12T03:06:43.734Z,1.03
2019-03-12T03:09:11.660Z,0.99
2019-03-12T03:11:39.471Z,0.93
2019-03-12T03:14:27.917Z,0.66
2019-03-12T03:16:55.869Z,0.26
2019-03-12T03:19:23.542Z,0.45
2019-03-12T03:21:51.124Z,0.57
2019-03-12T03:24:18.779Z,0.74
2019-03-12T03:26:46.383Z,1.03
2019-03-12T03:29:14.048Z,1.05
2019-03-12T03:31:41.618Z,0.93
2019-03-12T03:34:09.293Z,0.91
2019-03-12T03:36:36.824Z,0.80
2019-03-12T03:39:05.429Z,0.71
2019-03-12T03:41:35.139Z,0.47
2019-03-12T03:44:02.930Z,0.36
2019-03-12T03:46:30.627Z,0.56
2019-03-12T03:48:58.394Z,0.52
2019-03-12T03:51:26.186Z,0.49
2019-03-12T03:53:55.006Z,0.50
2019-03-12T03:56:22.754Z,0.59
2019-03-12T03:58:50.447Z,0.63
2019-03-12T04:01:18.066Z,0.78
2019-03-12T04:03:45.746Z,0.75
2019-03-12T04:06:13.334Z,0.66
2019-03-12T04:08:40.935Z,0.69
2019-03-12T04:11:08.656Z,0.62
2019-03-12T04:13:36.319Z,0.54
2019-03-12T04:16:04.094Z,0.45
2019-03-12T04:18:31.735Z,0.35
2019-03-12T04:20:59.537Z,0.22
2019-03-12T04:23:28.348Z,0.11
2019-03-12T04:25:56.023Z,0.01
2019-03-12T04:28:23.677Z,-0.01
2019-03-12T04:30:51.375Z,-0.47
2019-03-12T04:34:16.052Z,-0.18
2019-03-12T04:36:43.609Z,-0.05
2019-03-12T04:39:11.258Z,-0.13
2019-03-12T04:41:38.822Z,-0.05
2019-03-12T04:44:06.447Z,-0.01
2019-03-12T04:46:34.014Z,0.05
2019-03-12T04:49:01.638Z,0.21
2019-03-12T04:51:29.199Z,0.26
2019-03-12T04:53:56.833Z,0.30
2019-03-12T04:56:24.371Z,0.27
2019-03-12T04:58:51.988Z,0.18
2019-03-12T05:01:19.558Z,0.16
2019-03-12T05:03:47.220Z,0.13
2019-03-12T05:06:14.825Z,0.12
2019-03-12T05:08:42.527Z,0.02
2019-03-12T05:11:10.173Z,-0.06
2019-03-12T05:13:37.854Z,-0.10
2019-03-12T05:16:05.538Z,-0.08
2019-03-12T05:18:33.176Z,-0.07
2019-03-12T05:21:00.827Z,-0.09
2019-03-12T05:23:28.513Z,-0.16
2019-03-12T05:25:56.131Z,-0.19
2019-03-12T05:28:23.765Z,-0.10
2019-03-12T05:30:52.371Z,-0.12
2019-03-12T05:33:20.086Z,-0.11
2019-03-12T05:35:47.849Z,-0.16
2019-03-12T05:38:15.508Z,-0.24
2019-03-12T05:40:43.204Z,-0.26
2019-03-12T05:43:10.935Z,-0.36
2019-03-12T05:45:38.657Z,-0.38
2019-03-12T05:48:06.273Z,-0.24
2019-03-12T05:50:33.948Z,-0.03
2019-03-12T05:53:11.101Z,0.07
2019-03-12T05:55:38.849Z,0.19
2019-03-12T05:58:06.602Z,0.29
2019-03-12T06:00:34.196Z,0.30
2019-03-12T06:03:01.920Z,0.50
2019-03-12T06:05:29.634Z,0.74
2019-03-12T06:07:57.353Z,1.01
2019-03-12T06:10:25.068Z,1.14
2019-03-12T06:12:52.739Z,1.45
2019-03-12T06:15:20.559Z,1.60
2019-03-12T06:17:48.290Z,1.72
2019-03-12T06:20:16.034Z,1.79
2019-03-12T06:22:43.756Z,1.79
2019-03-12T06:25:12.226Z,1.97
2019-03-12T06:27:39.915Z,2.11
2019-03-12T06:30:08.966Z,2.22
2019-03-12T06:33:01.819Z,2.40
2019-03-12T06:35:48.732Z,2.63
2019-03-12T06:38:26.215Z,2.89
2019-03-12T06:41:01.770Z,3.16
2019-03-12T06:43:54.515Z,3.46
2019-03-12T06:46:37.441Z,3.71
2019-03-12T06:49:08.856Z,3.99
2019-03-12T06:52:10.947Z,4.25
2019-03-12T06:55:00.601Z,4.67
2019-03-12T06:57:53.635Z,5.26
2019-03-12T07:00:53.066Z,5.64
2019-03-12T07:03:35.330Z,6.14
2019-03-12T07:06:22.479Z,6.45
2019-03-12T07:09:05.461Z,6.82
2019-03-12T07:11:38.106Z,7.11
2019-03-12T07:14:13.700Z,7.34
2019-03-12T07:17:06.637Z,7.54
2019-03-12T07:20:08.654Z,7.85
2019-03-12T07:22:54.753Z,8.25
2019-03-12T07:25:51.151Z,8.69
2019-03-12T07:28:50.110Z,8.97
2019-03-12T07:31:32.420Z,9.38
2019-03-12T07:34:36.898Z,9.74
2019-03-12T07:37:30.257Z,9.95
2019-03-12T07:40:19.997Z,10.35
2019-03-12T07:42:59.234Z,10.71
2019-03-12T07:45:31.527Z,10.79
2019-03-12T07:48:15.184Z,10.91
2019-03-12T07:50:54.493Z,10.96
2019-03-12T07:53:35.132Z,11.02
2019-03-12T07:56:22.301Z,11.32
2019-03-12T07:59:09.103Z,11.49
2019-03-12T08:01:57.519Z,11.67
2019-03-12T08:05:03.059Z,11.73
2019-03-12T08:07:57.050Z,11.94
2019-03-12T08:10:39.823Z,12.21
2019-03-12T08:13:13.916Z,12.13
2019-03-12T08:16:18.855Z,11.85
2019-03-12T08:19:16.597Z,11.27
2019-03-12T08:22:06.942Z,10.79
2019-03-12T08:25:03.252Z,10.46
2019-03-12T08:27:53.504Z,10.25
2019-03-12T08:30:42.243Z,9.99
2019-03-12T08:33:35.526Z,9.87
2019-03-12T08:36:21.236Z,9.70
2019-03-12T08:39:17.164Z,9.59
2019-03-12T08:42:00.403Z,9.61
2019-03-12T08:44:42.592Z,9.53
2019-03-12T08:47:28.424Z,9.74
2019-03-12T08:50:18.487Z,9.78
2019-03-12T08:53:04.612Z,9.69
2019-03-12T08:56:00.977Z,9.57
2019-03-12T08:58:47.199Z,9.51
2019-03-12T09:01:29.658Z,9.47
2019-03-12T09:04:26.054Z,9.41
2019-03-12T09:07:20.406Z,9.46
2019-03-12T09:10:06.228Z,9.25
2019-03-12T09:12:40.937Z,9.02
2019-03-12T09:15:20.966Z,8.64
2019-03-12T09:18:11.040Z,8.60
2019-03-12T09:20:48.952Z,8.67
2019-03-12T09:23:27.096Z,8.76
2019-03-12T09:26:12.852Z,8.84
2019-03-12T09:28:46.002Z,8.98
2019-03-12T09:31:37.928Z,9.06
2019-03-12T09:34:16.630Z,9.51
2019-03-12T09:37:06.491Z,10.11
2019-03-12T09:40:02.782Z,10.17
2019-03-12T09:42:49.887Z,10.14
2019-03-12T09:45:43.445Z,10.27
2019-03-12T09:48:29.654Z,10.77
2019-03-12T09:51:17.864Z,11.08
2019-03-12T09:54:05.035Z,11.25
2019-03-12T09:56:54.819Z,11.17
2019-03-12T09:59:38.700Z,11.37
2019-03-12T10:02:17.600Z,11.36
2019-03-12T10:04:55.203Z,10.99
2019-03-12T10:07:42.345Z,10.59
2019-03-12T10:10:29.839Z,10.60
2019-03-12T10:13:32.154Z,10.97
2019-03-12T10:16:28.319Z,11.47
2019-03-12T10:19:24.251Z,11.77
2019-03-12T10:22:09.748Z,12.09
2019-03-12T10:25:12.053Z,12.89
2019-03-12T10:28:05.952Z,13.42
2019-03-12T10:30:50.326Z,13.84
2019-03-12T10:33:39.021Z,13.90
2019-03-12T10:36:31.071Z,14.11
2019-03-12T10:39:45.452Z,14.08
2019-03-12T10:42:30.668Z,13.98
2019-03-12T10:45:09.145Z,14.12
2019-03-12T10:47:37.382Z,14.44
2019-03-12T10:50:05.534Z,14.58
2019-03-12T10:52:33.385Z,14.76
2019-03-12T10:55:12.113Z,14.91
2019-03-12T10:57:30.730Z,15.17
2019-03-12T10:59:58.504Z,15.05
2019-03-12T11:02:29.131Z,15.20
2019-03-12T11:04:56.742Z,14.74
2019-03-12T11:07:24.425Z,14.61
2019-03-12T11:09:52.080Z,14.59
2019-03-12T11:12:19.819Z,14.69
2019-03-12T11:14:47.432Z,14.50
2019-03-12T11:17:15.197Z,14.19
2019-03-12T11:19:42.823Z,14.23
2019-03-12T11:22:10.451Z,14.66
2019-03-12T11:24:38.093Z,14.89
2019-03-12T11:27:05.831Z,15.12
2019-03-12T11:29:33.507Z,14.80
2019-03-12T11:32:01.200Z,14.66
2019-03-12T11:34:28.887Z,14.97
2019-03-12T11:36:56.597Z,15.15
2019-03-12T11:39:24.230Z,15.31
2019-03-12T11:41:51.981Z,15.60
2019-03-12T11:44:19.665Z,15.80
2019-03-12T11:46:47.408Z,15.99
2019-03-12T11:49:15.126Z,16.08
2019-03-12T11:51:42.855Z,16.22
2019-03-12T11:54:13.171Z,16.12
2019-03-12T11:56:44.089Z,16.24
2019-03-12T11:59:14.336Z,16.33
2019-03-12T12:01:45.217Z,16.20
2019-03-12T12:04:14.324Z,16.03
2019-03-12T12:06:43.561Z,16.32
2019-03-12T12:09:11.873Z,16.42
2019-03-12T12:11:43.227Z,16.01
2019-03-12T12:14:10.940Z,15.51
2019-03-12T12:16:38.793Z,15.42
2019-03-12T12:19:07.040Z,15.34
2019-03-12T12:21:34.973Z,15.19
2019-03-12T12:24:02.702Z,14.95
2019-03-12T12:26:30.607Z,15.08
2019-03-12T12:28:58.396Z,15.33
2019-03-12T12:31:29.335Z,15.43
2019-03-12T12:33:57.119Z,15.65
2019-03-12T12:36:24.711Z,15.72
2019-03-12T12:38:52.499Z,15.57
2019-03-12T12:41:20.102Z,15.67
2019-03-12T12:43:47.819Z,15.63
2019-03-12T12:46:15.475Z,15.77
2019-03-12T12:48:43.113Z,15.75
2019-03-12T12:51:10.794Z,15.98
2019-03-12T12:53:40.185Z,15.93
2019-03-12T12:56:07.895Z,16.29
2019-03-12T12:58:35.569Z,16.45
2019-03-12T13:01:03.431Z,16.37
2019-03-12T13:03:33.090Z,16.15
2019-03-12T13:06:00.853Z,16.02
2019-03-12T13:08:28.661Z,15.90
2019-03-12T13:10:57.355Z,15.84
2019-03-12T13:13:25.095Z,16.01
2019-03-12T13:15:52.755Z,15.77
2019-03-12T13:18:20.524Z,15.82
2019-03-12T13:20:48.178Z,15.65
2019-03-12T13:23:15.833Z,15.57
2019-03-12T13:25:43.541Z,15.96
2019-03-12T13:28:11.214Z,16.23
2019-03-12T13:30:38.948Z,16.23
2019-03-12T13:33:06.819Z,16.28
2019-03-12T13:35:34.728Z,16.43
2019-03-12T13:38:02.507Z,16.51
2019-03-12T13:40:30.404Z,16.47
2019-03-12T13:42:59.734Z,16.45
2019-03-12T13:45:28.037Z,16.55
2019-03-12T13:47:56.484Z,16.69
2019-03-12T13:50:24.621Z,16.80
2019-03-12T13:52:52.470Z,16.76
2019-03-12T13:55:20.188Z,17.05
2019-03-12T13:57:47.909Z,17.02
2019-03-12T14:00:17.235Z,17.04
2019-03-12T14:02:47.916Z,16.98
2019-03-12T14:05:15.753Z,17.03
2019-03-12T14:07:43.343Z,17.15
2019-03-12T14:10:13.817Z,17.20
2019-03-12T14:12:44.317Z,16.97
2019-03-12T14:15:15.486Z,17.15
2019-03-12T14:17:43.178Z,16.91
2019-03-12T14:20:41.690Z,17.19
2019-03-12T14:23:10.313Z,17.34
2019-03-12T14:25:37.983Z,17.33
2019-03-12T14:28:05.697Z,17.28
2019-03-12T14:30:33.389Z,17.61
2019-03-12T14:33:01.067Z,17.68
2019-03-12T14:35:28.940Z,17.75
2019-03-12T14:37:56.757Z,17.94
2019-03-12T14:40:24.446Z,18.17
2019-03-12T14:42:52.245Z,18.11
2019-03-12T14:45:25.081Z,17.89
2019-03-12T14:47:52.719Z,17.48
2019-03-12T14:50:20.611Z,17.16
2019-03-12T14:52:50.933Z,16.49
2019-03-12T14:55:18.624Z,16.03
2019-03-12T14:57:46.299Z,15.43
2019-03-12T15:00:19.336Z,14.93
2019-03-12T15:02:47.059Z,14.55
2019-03-12T15:05:14.783Z,14.10
2019-03-12T15:07:42.582Z,13.76
2019-03-12T15:10:10.730Z,13.49
2019-03-12T15:12:38.358Z,13.44
2019-03-12T15:15:06.343Z,13.46
2019-03-12T15:17:33.951Z,13.39
2019-03-12T15:20:01.811Z,13.24
2019-03-12T15:22:29.421Z,13.06
2019-03-12T15:24:57.050Z,12.96
2019-03-12T15:27:24.739Z,12.90
2019-03-12T15:29:52.499Z,12.76
2019-03-12T15:32:23.159Z,12.87
2019-03-12T15:34:50.990Z,12.80
2019-03-12T15:37:18.759Z,12.80
2019-03-12T15:39:46.649Z,12.70
2019-03-12T15:42:14.432Z,12.60
2019-03-12T15:44:42.253Z,12.57
2019-03-12T15:47:10.057Z,12.66
2019-03-12T15:49:43.052Z,12.64
2019-03-12T15:52:07.509Z,12.69
2019-03-12T15:54:35.240Z,12.53
2019-03-12T15:57:02.929Z,12.65
2019-03-12T15:59:30.718Z,12.65
2019-03-12T16:01:58.472Z,12.60
2019-03-12T16:04:26.248Z,12.54
2019-03-12T16:07:01.186Z,12.50
2019-03-12T16:09:23.695Z,12.49
2019-03-12T16:11:51.414Z,12.43
2019-03-12T16:14:19.173Z,12.41
2019-03-12T16:16:46.990Z,12.34
2019-03-12T16:19:14.852Z,12.23
2019-03-12T16:21:42.659Z,12.17
2019-03-12T16:24:10.489Z,12.03
2019-03-12T16:26:38.200Z,11.92
2019-03-12T16:29:05.955Z,11.78
2019-03-12T16:31:33.713Z,11.57
2019-03-12T16:34:01.413Z,11.41
2019-03-12T16:36:29.342Z,11.23
2019-03-12T16:38:57.008Z,11.04
2019-03-12T16:41:24.668Z,10.73
2019-03-12T16:43:52.563Z,10.53
2019-03-12T16:46:20.199Z,10.35
2019-03-12T16:48:48.034Z,10.21
2019-03-12T16:51:15.875Z,10.02
2019-03-12T16:53:46.687Z,9.88
2019-03-12T16:56:14.394Z,9.64
2019-03-12T16:58:42.174Z,9.60
2019-03-12T17:01:10.402Z,9.47
2019-03-12T17:03:38.192Z,9.28
2019-03-12T17:06:05.925Z,9.13
2019-03-12T17:08:33.685Z,8.94
2019-03-12T17:11:04.056Z,8.76
2019-03-12T17:13:31.796Z,8.64
2019-03-12T17:16:00.351Z,8.53
2019-03-12T17:18:28.102Z,8.42
2019-03-12T17:20:55.808Z,8.29
2019-03-12T17:23:24.146Z,8.20
2019-03-12T17:25:51.798Z,8.07
2019-03-12T17:28:19.502Z,7.92
2019-03-12T17:30:47.151Z,7.79
2019-03-12T17:33:15.010Z,7.65
2019-03-12T17:35:42.794Z,7.60
2019-03-12T17:38:10.580Z,7.57
2019-03-12T17:40:38.335Z,7.50
2019-03-12T17:43:06.038Z,7.41
2019-03-12T17:45:33.746Z,7.29
2019-03-12T17:48:01.482Z,7.18
2019-03-12T17:50:31.105Z,7.01
2019-03-12T17:52:58.851Z,6.82
2019-03-12T17:55:26.451Z,6.81
2019-03-12T17:57:54.503Z,6.75
2019-03-12T18:00:23.228Z,6.57
2019-03-12T18:02:52.764Z,6.51
2019-03-12T18:05:20.526Z,6.45
2019-03-12T18:07:48.400Z,6.35
2019-03-12T18:10:19.135Z,6.25
2019-03-12T18:12:47.068Z,6.16
2019-03-12T18:15:14.745Z,6.09
2019-03-12T18:17:42.509Z,5.98
2019-03-12T18:20:11.795Z,5.90
2019-03-12T18:22:39.707Z,5.89
2019-03-12T18:25:11.647Z,5.78
2019-03-12T18:27:39.718Z,5.73
2019-03-12T18:30:10.166Z,5.73
2019-03-12T18:32:39.233Z,5.83
2019-03-12T18:35:07.177Z,5.72
2019-03-12T18:37:34.946Z,5.52
2019-03-12T18:40:02.819Z,5.31
2019-03-12T18:42:30.631Z,5.21
2019-03-12T18:44:59.042Z,5.12
2019-03-12T18:47:26.909Z,5.06
2019-03-12T18:49:54.682Z,5.08
2019-03-12T18:52:22.491Z,5.13
2019-03-12T18:54:52.231Z,5.21
2019-03-12T18:57:22.716Z,5.21
2019-03-12T18:59:50.895Z,5.18
2019-03-12T19:02:18.805Z,5.12
2019-03-12T19:04:46.676Z,5.10
2019-03-12T19:07:18.378Z,5.11
2019-03-12T19:09:45.710Z,5.06
2019-03-12T19:12:13.390Z,5.13
2019-03-12T19:14:41.060Z,5.08
2019-03-12T19:17:08.830Z,5.06
2019-03-12T19:19:36.571Z,5.03
2019-03-12T19:22:04.394Z,5.03
2019-03-12T19:24:33.287Z,4.95
2019-03-12T19:27:01.158Z,4.91
2019-03-12T19:29:29.345Z,4.75
2019-03-12T19:32:14.441Z,4.67
2019-03-12T19:34:43.930Z,4.74
2019-03-12T19:37:18.920Z,4.72
2019-03-12T19:39:46.697Z,4.74
2019-03-12T19:42:14.601Z,4.65
2019-03-12T19:44:45.015Z,4.59
2019-03-12T19:47:12.985Z,4.58
2019-03-12T19:49:40.914Z,4.51
2019-03-12T19:52:11.586Z,4.46
2019-03-12T19:54:39.239Z,4.40
2019-03-12T19:57:07.066Z,4.38
2019-03-12T19:59:34.716Z,4.29
2019-03-12T20:02:15.266Z,4.20
2019-03-12T20:04:33.210Z,4.13
2019-03-12T20:07:01.083Z,4.10
2019-03-12T20:10:08.260Z,4.10
2019-03-12T20:13:23.563Z,4.11
2019-03-12T20:16:35.917Z,3.99
2019-03-12T20:19:41.275Z,3.95
2019-03-12T20:22:55.630Z,3.89
2019-03-12T20:25:54.336Z,3.82
2019-03-12T20:28:47.717Z,3.77
2019-03-12T20:31:52.459Z,3.69
2019-03-12T20:35:26.227Z,3.60
2019-03-12T20:38:37.468Z,3.54
2019-03-12T20:41:42.825Z,3.51
2019-03-12T20:45:04.925Z,3.48
2019-03-12T20:48:26.423Z,3.44
2019-03-12T20:51:30.270Z,3.49
2019-03-12T20:54:34.286Z,3.45
2019-03-12T20:57:45.522Z,3.39
2019-03-12T21:00:51.231Z,3.39
2019-03-12T21:04:11.683Z,3.35
2019-03-12T21:07:30.366Z,3.25
2019-03-12T21:10:43.039Z,2.96
2019-03-12T21:13:58.852Z,3.05
2019-03-12T21:16:57.105Z,3.17
2019-03-12T21:20:08.376Z,3.18
2019-03-12T21:23:10.788Z,3.17
2019-03-12T21:26:23.467Z,3.18
2019-03-12T21:29:14.426Z,3.17
2019-03-12T21:31:42.184Z,3.15
2019-03-12T21:34:09.925Z,3.06
2019-03-12T21:36:37.949Z,3.06
2019-03-12T21:39:07.387Z,3.00
2019-03-12T21:41:36.918Z,3.04
2019-03-12T21:44:05.021Z,3.05
2019-03-12T21:46:32.769Z,3.04
2019-03-12T21:49:00.534Z,3.13
2019-03-12T21:51:28.353Z,3.07
2019-03-12T21:53:56.079Z,2.97
2019-03-12T21:56:23.831Z,3.01
2019-03-12T21:58:51.495Z,3.03
2019-03-12T22:01:19.145Z,3.07
2019-03-12T22:03:48.637Z,3.07
2019-03-12T22:06:16.358Z,3.02
2019-03-12T22:08:44.197Z,3.00
2019-03-12T22:11:12.010Z,2.97
2019-03-12T22:13:39.761Z,2.99
2019-03-12T22:16:09.261Z,3.03
2019-03-12T22:18:37.104Z,3.02
2019-03-12T22:21:04.984Z,2.87
2019-03-12T22:23:42.010Z,2.75
2019-03-12T22:26:09.813Z,2.68
2019-03-12T22:28:37.529Z,2.66
2019-03-12T22:31:05.409Z,2.58
2019-03-12T22:33:33.140Z,2.52
2019-03-12T22:36:00.816Z,2.55
2019-03-12T22:38:28.372Z,2.49
2019-03-12T22:40:56.073Z,2.43
2019-03-12T22:43:23.705Z,2.36
2019-03-12T22:45:51.422Z,2.33
2019-03-12T22:48:19.032Z,2.31
2019-03-12T22:50:46.704Z,2.39
2019-03-12T22:53:14.328Z,2.41
2019-03-12T22:55:42.045Z,2.33
2019-03-12T22:58:09.738Z,2.30
2019-03-12T23:00:56.029Z,2.26
2019-03-12T23:03:42.150Z,2.37
2019-03-12T23:06:28.985Z,2.40
2019-03-12T23:09:15.311Z,2.37
2019-03-12T23:11:44.822Z,2.33
2019-03-12T23:14:13.004Z,2.27
2019-03-12T23:16:40.858Z,2.25
2019-03-12T23:19:08.491Z,2.25
2019-03-12T23:21:36.592Z,2.27
2019-03-12T23:24:04.228Z,2.30
2019-03-12T23:26:31.989Z,2.39
2019-03-12T23:28:59.551Z,2.40
2019-03-12T23:31:27.263Z,2.32
2019-03-12T23:33:54.889Z,2.21
2019-03-12T23:36:22.661Z,2.22
2019-03-12T23:38:50.292Z,2.27
2019-03-12T23:41:17.903Z,2.24
2019-03-12T23:43:45.521Z,2.18
2019-03-12T23:46:13.422Z,2.16
2019-03-12T23:48:41.047Z,2.30
2019-03-12T23:51:08.969Z,2.42
2019-03-12T23:53:36.585Z,2.50
2019-03-12T23:56:04.291Z,2.58
2019-03-12T23:58:32.060Z,2.61
